Time;durP1;ratioP1;P1;durP2;ratioP2;P2;SDS_P1;SDS_P2;PMS_P1;PMS_P2;Temp;Humidity;BMP_temperature;BMP_pressure;BME280_temperature;BME280_humidity;BME280_pressure;Samples;Min_cycle;Max_cycle;Signal;HPM_P1;HPM_P2
2023/06/12 00:00:35;;;;;;;6.20;5.23;;;;;;;25.24;50.77;99983.28;5071596;28;20207;-75
2023/06/12 00:03:01;;;;;;;10.30;5.10;;;;;;;25.24;50.90;99983.28;5071745;28;20428;-75
2023/06/12 00:05:27;;;;;;;7.10;5.03;;;;;;;25.24;50.48;99983.28;5070806;28;20189;-75
2023/06/12 00:07:56;;;;;;;6.53;5.60;;;;;;;25.23;51.00;99978.75;5087845;28;20416;-75
2023/06/12 00:10:21;;;;;;;6.43;4.90;;;;;;;25.23;51.22;99978.75;5052045;28;21061;-75
2023/06/12 00:12:47;;;;;;;8.37;5.70;;;;;;;25.23;51.41;99984.53;5041483;28;20552;-75
2023/06/12 00:15:12;;;;;;;9.30;5.63;;;;;;;25.23;50.71;99978.75;5017129;28;20187;-75
2023/06/12 00:17:38;;;;;;;6.33;4.90;;;;;;;25.23;50.83;99975.88;5051000;28;20871;-75
2023/06/12 00:20:05;;;;;;;6.80;5.00;;;;;;;25.22;50.85;99974.22;5053811;28;20182;-75
2023/06/12 00:22:30;;;;;;;6.93;5.87;;;;;;;25.22;51.20;99968.44;5070119;28;20420;-75
2023/06/12 00:24:56;;;;;;;5.90;4.93;;;;;;;25.23;51.29;99975.06;5056024;28;20778;-75
2023/06/12 00:27:21;;;;;;;9.37;5.23;;;;;;;25.23;50.80;99975.06;5060778;28;20174;-75
2023/06/12 00:29:47;;;;;;;7.17;5.30;;;;;;;25.22;51.01;99974.22;5051150;28;20175;-75
2023/06/12 00:32:12;;;;;;;7.53;5.07;;;;;;;25.22;50.94;99974.22;5053825;28;20205;-75
2023/06/12 00:34:38;;;;;;;6.93;5.43;;;;;;;25.22;51.15;99974.22;5053721;28;20194;-75
2023/06/12 00:37:05;;;;;;;6.27;5.63;;;;;;;25.22;50.87;99974.22;5073333;28;20560;-75
2023/06/12 00:39:30;;;;;;;5.97;4.80;;;;;;;25.21;51.00;99984.16;5053873;28;20171;-75
2023/06/12 00:41:55;;;;;;;8.43;5.40;;;;;;;25.22;51.38;99984.97;5051609;28;20448;-74
2023/06/12 00:44:21;;;;;;;6.90;5.00;;;;;;;25.22;51.12;99990.75;5044397;28;20182;-75
2023/06/12 00:46:46;;;;;;;6.03;4.80;;;;;;;25.21;51.08;99987.06;5035961;28;20189;-76
2023/06/12 00:49:12;;;;;;;6.90;5.53;;;;;;;25.21;50.94;99989.94;5036505;28;20170;-75
2023/06/12 00:51:39;;;;;;;6.77;5.23;;;;;;;25.20;51.25;99996.97;5050644;28;20888;-74
2023/06/12 00:54:04;;;;;;;6.90;5.60;;;;;;;25.20;51.08;99985.41;5034027;28;20172;-75
2023/06/12 00:56:30;;;;;;;6.93;5.70;;;;;;;25.20;51.35;99993.25;5053231;28;20451;-75
2023/06/12 00:58:55;;;;;;;6.93;5.27;;;;;;;25.21;51.38;99986.22;5051805;28;20654;-75
2023/06/12 01:01:25;;;;;;;8.50;5.60;;;;;;;25.19;51.04;99983.75;5054218;28;20174;-75
2023/06/12 01:03:57;;;;;;;7.53;5.80;;;;;;;25.20;50.87;99988.31;5054406;28;20181;-75
2023/06/12 01:06:30;;;;;;;7.40;5.17;;;;;;;25.18;50.98;99985.03;5051378;28;20523;-75
2023/06/12 01:09:03;;;;;;;7.20;5.43;;;;;;;25.19;51.22;99995.31;5088942;28;20420;-75
2023/06/12 01:11:29;;;;;;;6.60;4.60;;;;;;;25.19;51.06;99997.41;5065663;28;20465;-75
2023/06/12 01:13:54;;;;;;;7.03;5.17;;;;;;;25.17;51.15;99992.06;5031899;28;20425;-75
2023/06/12 01:16:20;;;;;;;7.70;6.00;;;;;;;25.17;51.33;100000.72;5059444;28;20292;-75
2023/06/12 01:18:45;;;;;;;6.70;5.63;;;;;;;25.17;51.15;99997.00;5070340;28;20687;-75
2023/06/12 01:21:14;;;;;;;7.37;5.60;;;;;;;25.17;51.13;99991.22;5053446;28;20183;-74
2023/06/12 01:23:39;;;;;;;5.97;5.00;;;;;;;25.17;51.01;99988.34;5070243;28;20194;-75
2023/06/12 01:26:11;;;;;;;6.17;5.03;;;;;;;25.17;51.17;99991.22;5088188;28;20432;-75
2023/06/12 01:28:51;;;;;;;8.00;4.30;;;;;;;25.16;51.71;99989.59;5087784;28;20186;-75
2023/06/12 01:31:25;;;;;;;6.60;5.00;;;;;;;25.16;51.33;99989.59;5055374;28;20461;-75
2023/06/12 01:34:07;;;;;;;7.67;5.63;;;;;;;25.16;51.25;99986.69;5063768;28;20523;-75
2023/06/12 01:36:36;;;;;;;6.30;4.77;;;;;;;25.16;51.29;99992.47;5055217;28;20509;-75
2023/06/12 01:39:01;;;;;;;7.50;5.90;;;;;;;25.15;51.20;99983.00;5056543;28;20420;-75
2023/06/12 01:41:27;;;;;;;8.00;5.53;;;;;;;25.15;51.20;99980.13;5057060;28;20853;-75
2023/06/12 01:43:53;;;;;;;6.90;5.03;;;;;;;25.13;51.72;99971.06;5057158;28;20286;-75
2023/06/12 01:46:18;;;;;;;7.03;4.90;;;;;;;25.14;51.39;99966.91;5054471;28;20992;-75
2023/06/12 01:48:44;;;;;;;7.00;5.13;;;;;;;25.15;51.64;99976.41;5037929;28;20205;-75
2023/06/12 01:51:09;;;;;;;7.00;5.20;;;;;;;25.14;51.48;99971.88;5044945;28;20186;-75
2023/06/12 01:53:35;;;;;;;6.50;5.17;;;;;;;25.14;51.46;99981.34;5057483;28;20178;-75
2023/06/12 01:56:00;;;;;;;7.93;5.70;;;;;;;25.14;51.67;99977.66;5057676;28;20174;-76
2023/06/12 01:58:26;;;;;;;6.63;5.47;;;;;;;25.13;51.35;99973.94;5072819;28;20209;-75
2023/06/12 02:00:53;;;;;;;6.27;5.10;;;;;;;25.13;51.31;99976.84;5039833;28;20174;-75
2023/06/12 02:03:20;;;;;;;6.00;4.77;;;;;;;25.13;51.61;99970.25;5057310;28;20792;-75
2023/06/12 02:05:45;;;;;;;7.70;5.30;;;;;;;25.12;51.75;99980.97;5056388;28;20482;-76
2023/06/12 02:08:11;;;;;;;5.83;5.03;;;;;;;25.12;51.71;99975.19;5089142;28;20436;-75
2023/06/12 02:10:37;;;;;;;6.43;5.20;;;;;;;25.12;51.39;99978.09;5073266;28;20525;-75
2023/06/12 02:13:02;;;;;;;8.10;5.23;;;;;;;25.11;51.44;99969.84;5056640;28;20663;-75
2023/06/12 02:15:28;;;;;;;6.83;5.50;;;;;;;25.11;51.49;99979.34;5045459;28;20202;-75
2023/06/12 02:17:53;;;;;;;7.80;5.57;;;;;;;25.10;51.27;99983.50;5061254;28;20209;-75
2023/06/12 02:20:19;;;;;;;6.57;5.43;;;;;;;25.09;51.18;99981.84;5037280;28;20253;-75
2023/06/12 02:22:44;;;;;;;8.33;5.60;;;;;;;25.09;51.39;99981.84;5039798;28;20174;-75
2023/06/12 02:25:10;;;;;;;6.50;5.17;;;;;;;25.09;51.50;99978.94;5059860;28;20181;-75
2023/06/12 02:27:35;;;;;;;6.50;5.60;;;;;;;25.10;51.42;99985.56;5090426;28;20241;-75
2023/06/12 02:30:01;;;;;;;6.93;5.47;;;;;;;25.09;51.56;99986.81;5090312;28;20175;-75
2023/06/12 02:32:27;;;;;;;6.27;5.23;;;;;;;25.10;51.53;99983.50;5064284;28;20255;-75
2023/06/12 02:34:54;;;;;;;7.23;5.63;;;;;;;25.09;51.45;99981.84;5056898;28;20522;-75
2023/06/12 02:37:20;;;;;;;6.10;5.00;;;;;;;25.09;51.57;99986.81;5058420;28;20432;-75
2023/06/12 02:39:45;;;;;;;7.53;5.20;;;;;;;25.09;51.40;99992.59;5064220;28;20424;-75
2023/06/12 02:42:11;;;;;;;8.43;5.67;;;;;;;25.09;51.53;99995.47;5088756;28;20166;-75
2023/06/12 02:44:36;;;;;;;6.73;4.77;;;;;;;25.07;51.43;100001.69;5056646;28;20542;-74
2023/06/12 02:47:02;;;;;;;7.03;5.43;;;;;;;25.08;51.44;99996.75;5072906;28;20174;-75
2023/06/12 02:49:28;;;;;;;6.50;5.27;;;;;;;25.06;51.16;99999.22;5073554;28;20183;-75
2023/06/12 02:51:54;;;;;;;7.47;5.33;;;;;;;25.06;51.20;100002.94;5057075;28;20195;-75
2023/06/12 02:54:21;;;;;;;6.27;4.90;;;;;;;25.06;51.46;100000.06;5064215;28;20824;-75
2023/06/12 02:56:46;;;;;;;6.93;5.47;;;;;;;25.05;51.10;100007.09;5052352;28;20174;-75
2023/06/12 02:59:16;;;;;;;6.20;5.00;;;;;;;25.05;51.62;100004.19;5042695;28;20424;-75
2023/06/12 03:01:43;;;;;;;6.27;5.17;;;;;;;25.05;51.95;100007.09;5038959;28;20170;-75
2023/06/12 03:04:13;;;;;;;8.50;5.67;;;;;;;25.05;51.69;100001.31;5054875;28;20439;-75
2023/06/12 03:06:39;;;;;;;6.20;5.00;;;;;;;25.05;51.52;100003.38;5037726;28;20429;-75
2023/06/12 03:09:05;;;;;;;9.47;5.27;;;;;;;25.05;51.52;100009.97;5052594;28;20449;-75
2023/06/12 03:11:31;;;;;;;6.83;4.73;;;;;;;25.04;51.63;100008.31;5046286;28;21015;-77
2023/06/12 03:13:57;;;;;;;6.20;5.13;;;;;;;25.05;51.91;100015.75;5033430;28;21234;-75
2023/06/12 03:16:24;;;;;;;7.87;5.53;;;;;;;25.04;51.14;100005.44;5053817;28;20429;-75
2023/06/12 03:18:49;;;;;;;6.13;5.53;;;;;;;25.03;51.32;100015.34;5056202;28;20182;-75
2023/06/12 03:21:15;;;;;;;6.23;5.00;;;;;;;25.03;51.77;100018.25;5054037;28;20911;-75
2023/06/12 03:23:41;;;;;;;6.93;5.50;;;;;;;25.04;51.63;100027.75;5036761;28;20210;-75
2023/06/12 03:26:06;;;;;;;6.57;5.30;;;;;;;25.02;51.63;100022.38;5058731;28;20202;-75
2023/06/12 03:28:34;;;;;;;6.53;5.10;;;;;;;25.02;51.43;100031.06;5072266;28;20175;-77
2023/06/12 03:31:00;;;;;;;6.03;5.00;;;;;;;25.01;51.23;100025.69;5072234;28;20150;-75
2023/06/12 03:33:26;;;;;;;7.37;4.90;;;;;;;25.02;51.05;100036.00;5039573;28;21040;-75
2023/06/12 03:35:51;;;;;;;7.53;5.37;;;;;;;25.01;51.41;100035.19;5049786;28;20194;-75
2023/06/12 03:38:17;;;;;;;6.30;5.70;;;;;;;25.01;51.60;100043.88;5048938;28;20466;-75
2023/06/12 03:40:42;;;;;;;9.57;5.60;;;;;;;25.01;51.04;100049.63;5067503;28;20206;-75
2023/06/12 03:43:08;;;;;;;6.70;5.53;;;;;;;25.00;51.54;100039.34;5053973;28;20684;-75
2023/06/12 03:45:33;;;;;;;7.33;5.67;;;;;;;25.00;51.44;100041.41;5054587;28;20170;-75
2023/06/12 03:47:59;;;;;;;6.00;4.70;;;;;;;25.00;51.34;100050.06;5040154;28;20204;-75
2023/06/12 03:50:25;;;;;;;7.00;5.10;;;;;;;24.99;51.15;100052.13;5071301;28;20182;-74
2023/06/12 03:52:50;;;;;;;6.57;5.20;;;;;;;24.99;51.09;100054.22;5055159;28;20202;-75
2023/06/12 03:55:16;;;;;;;7.10;5.27;;;;;;;24.98;51.58;100056.28;5053835;28;20866;-75
2023/06/12 03:57:41;;;;;;;7.50;4.83;;;;;;;24.98;51.22;100056.28;5018096;28;20832;-75
2023/06/12 04:00:08;;;;;;;6.77;5.33;;;;;;;24.98;51.38;100056.28;5034164;28;20179;-75
2023/06/12 04:02:34;;;;;;;6.57;5.43;;;;;;;24.97;51.64;100060.41;5019741;28;20166;-75
2023/06/12 04:05:00;;;;;;;9.30;5.83;;;;;;;24.99;51.68;100066.56;5066597;28;20429;-75
2023/06/12 04:07:26;;;;;;;8.27;5.57;;;;;;;24.97;51.45;100068.25;5067933;28;20440;-75
2023/06/12 04:09:52;;;;;;;5.93;5.30;;;;;;;24.96;51.38;100070.34;5062845;28;20440;-75
2023/06/12 04:12:17;;;;;;;8.30;5.17;;;;;;;24.97;50.97;100082.69;5034366;28;20262;-75
2023/06/12 04:14:42;;;;;;;10.47;5.53;;;;;;;24.96;51.63;100081.88;5033572;28;20211;-75
2023/06/12 04:17:08;;;;;;;9.07;6.27;;;;;;;24.96;51.22;100079.00;5031527;28;20230;-75
2023/06/12 04:19:34;;;;;;;5.67;5.00;;;;;;;24.94;51.63;100078.59;5017396;28;20180;-75
2023/06/12 04:22:01;;;;;;;9.00;5.37;;;;;;;24.95;51.16;100085.19;5031937;28;20255;-75
2023/06/12 04:24:30;;;;;;;6.37;5.30;;;;;;;24.95;51.26;100091.81;5047047;28;20207;-76
2023/06/12 04:27:00;;;;;;;7.70;5.10;;;;;;;24.94;51.47;100078.59;5028473;28;20411;-75
2023/06/12 04:29:27;;;;;;;6.07;5.00;;;;;;;24.95;51.22;100086.03;5045407;28;20464;-74
2023/06/12 04:31:54;;;;;;;7.00;5.70;;;;;;;24.94;51.44;100081.47;5046335;28;20462;-75
2023/06/12 04:34:20;;;;;;;6.53;4.90;;;;;;;24.94;51.30;100081.47;5031248;28;20422;-75
2023/06/12 04:36:46;;;;;;;6.73;5.10;;;;;;;24.95;51.01;100085.19;5046939;28;20436;-75
2023/06/12 04:39:13;;;;;;;8.23;5.80;;;;;;;24.97;51.08;100082.69;5013291;28;20196;-75
2023/06/12 04:41:40;;;;;;;9.30;5.80;;;;;;;24.98;51.58;100085.16;5016897;28;20175;-75
2023/06/12 04:44:06;;;;;;;6.17;5.20;;;;;;;25.00;51.52;100082.69;5030363;28;20434;-75
2023/06/12 04:46:32;;;;;;;5.70;4.80;;;;;;;25.00;51.59;100091.34;5029984;28;20917;-75
2023/06/12 04:48:59;;;;;;;7.13;5.70;;;;;;;25.02;51.86;100085.94;5030492;28;20548;-75
2023/06/12 04:51:24;;;;;;;7.73;5.50;;;;;;;25.02;51.69;100080.16;5030052;28;21009;-75
2023/06/12 04:53:53;;;;;;;5.67;4.77;;;;;;;25.00;51.58;100079.78;5031639;28;20418;-75
2023/06/12 04:56:21;;;;;;;6.13;5.20;;;;;;;25.01;52.05;100084.31;5032191;28;20176;-75
2023/06/12 04:58:47;;;;;;;6.50;5.40;;;;;;;25.00;52.29;100082.69;5017778;28;20470;-75
2023/06/12 05:01:14;;;;;;;6.07;5.20;;;;;;;25.00;53.24;100079.78;5012979;28;20554;-75
2023/06/12 05:03:40;;;;;;;6.37;5.70;;;;;;;25.00;52.73;100082.69;5015320;28;20553;-75
2023/06/12 05:06:07;;;;;;;6.73;5.03;;;;;;;25.01;52.35;100071.91;5030855;28;20448;-75
2023/06/12 05:08:32;;;;;;;6.30;5.30;;;;;;;25.03;52.19;100081.00;5030985;28;20897;-75
2023/06/12 05:10:58;;;;;;;6.03;5.23;;;;;;;25.02;52.44;100074.38;5042540;28;20575;-75
2023/06/12 05:13:23;;;;;;;6.60;5.07;;;;;;;25.04;52.68;100076.84;5084186;28;20259;-75
2023/06/12 05:15:48;;;;;;;8.67;6.13;;;;;;;25.05;52.86;100081.38;5073407;28;20199;-75
2023/06/12 05:18:14;;;;;;;6.50;5.80;;;;;;;25.06;52.68;100080.94;5069794;28;20203;-75
2023/06/12 05:20:40;;;;;;;6.27;4.90;;;;;;;25.07;52.56;100082.56;5071305;28;20185;-75
2023/06/12 05:23:05;;;;;;;6.47;5.33;;;;;;;25.09;52.22;100085.84;5057160;28;20174;-75
2023/06/12 05:25:31;;;;;;;6.30;5.20;;;;;;;25.09;51.94;100080.06;5071492;28;20189;-75
2023/06/12 05:27:56;;;;;;;6.07;5.37;;;;;;;25.11;52.10;100089.13;5060910;28;20181;-75
2023/06/12 05:30:22;;;;;;;6.00;5.27;;;;;;;25.11;51.84;100077.59;5071812;28;20171;-75
2023/06/12 05:32:47;;;;;;;8.10;5.70;;;;;;;25.10;51.33;100087.50;5060070;28;20202;-75
2023/06/12 05:35:13;;;;;;;7.60;5.50;;;;;;;25.07;51.25;100087.53;5061247;28;20170;-75
2023/06/12 05:37:38;;;;;;;5.63;5.03;;;;;;;25.06;51.29;100086.72;5086672;28;20182;-75
2023/06/12 05:40:08;;;;;;;7.57;6.03;;;;;;;25.05;51.30;100082.19;5040853;28;20357;-75
2023/06/12 05:42:37;;;;;;;8.87;5.80;;;;;;;25.05;51.49;100076.44;5038060;28;20171;-75
2023/06/12 05:45:03;;;;;;;7.67;5.37;;;;;;;25.06;51.47;100078.06;5054620;28;20860;-75
2023/06/12 05:47:29;;;;;;;7.23;5.83;;;;;;;25.06;51.82;100083.84;5083769;28;20567;-75
2023/06/12 05:49:55;;;;;;;5.77;5.17;;;;;;;25.07;51.15;100081.75;5073158;28;20924;-75
2023/06/12 05:52:20;;;;;;;7.00;5.30;;;;;;;25.06;51.37;100080.94;5050156;28;20202;-74
2023/06/12 05:54:46;;;;;;;5.80;4.87;;;;;;;25.06;51.81;100074.34;5053549;28;20186;-76
2023/06/12 05:57:13;;;;;;;8.57;5.67;;;;;;;25.05;51.67;100073.53;5057617;28;20181;-75
2023/06/12 05:59:38;;;;;;;6.80;5.40;;;;;;;25.07;51.46;100073.06;5040342;28;20185;-75
2023/06/12 06:02:04;;;;;;;7.50;5.33;;;;;;;25.08;51.34;100080.53;5074281;28;20428;-75
2023/06/12 06:04:29;;;;;;;7.40;5.77;;;;;;;25.10;51.07;100075.94;5073735;28;20155;-75
2023/06/12 06:06:55;;;;;;;6.50;5.47;;;;;;;25.12;51.64;100075.50;5072348;28;20186;-76
2023/06/12 06:09:20;;;;;;;6.53;5.67;;;;;;;25.14;51.70;100079.59;5043995;28;20186;-75
2023/06/12 06:11:46;;;;;;;6.53;5.30;;;;;;;25.16;52.79;100087.84;5055467;28;20264;-74
2023/06/12 06:14:12;;;;;;;9.60;5.83;;;;;;;25.11;51.35;100085.41;5045383;28;20756;-75
2023/06/12 06:16:37;;;;;;;6.43;5.70;;;;;;;25.10;51.14;100093.28;5039323;28;20642;-76
2023/06/12 06:19:02;;;;;;;7.27;5.40;;;;;;;25.10;52.05;100096.19;5055703;28;20186;-75
2023/06/12 06:21:30;;;;;;;6.97;5.67;;;;;;;25.10;51.86;100099.06;5056374;28;20862;-75
2023/06/12 06:23:56;;;;;;;6.20;5.60;;;;;;;25.09;51.72;100103.19;5070662;28;20624;-76
2023/06/12 06:26:21;;;;;;;9.10;6.00;;;;;;;25.08;51.98;100103.63;5073392;28;20503;-75
2023/06/12 06:28:47;;;;;;;11.50;5.93;;;;;;;25.06;51.69;100101.16;5073398;28;20251;-76
2023/06/12 06:31:12;;;;;;;7.27;5.63;;;;;;;25.05;51.48;100102.44;5061442;28;20654;-75
2023/06/12 06:33:38;;;;;;;9.00;5.50;;;;;;;25.05;51.87;100105.31;5036388;28;20203;-75
2023/06/12 06:36:03;;;;;;;11.23;6.00;;;;;;;25.06;51.52;100109.00;5040857;28;20178;-76
2023/06/12 06:38:29;;;;;;;6.50;4.80;;;;;;;25.04;51.66;100108.63;5069884;28;20186;-76
2023/06/12 06:40:55;;;;;;;8.90;6.23;;;;;;;25.03;51.77;100104.09;5020551;28;20194;-75
2023/06/12 06:43:20;;;;;;;8.20;5.67;;;;;;;25.03;51.97;100113.56;5034283;28;20821;-75
2023/06/12 06:45:46;;;;;;;6.20;5.13;;;;;;;25.01;51.92;100106.59;5066542;28;20187;-76
2023/06/12 06:48:12;;;;;;;8.90;5.27;;;;;;;25.02;51.67;100106.16;5070169;28;20170;-75
2023/06/12 06:50:38;;;;;;;7.97;6.00;;;;;;;25.04;52.52;100118.09;5062427;28;20801;-75
2023/06/12 06:53:03;;;;;;;7.77;5.80;;;;;;;25.04;51.83;100100.75;5049534;28;20460;-75
2023/06/12 06:55:29;;;;;;;6.57;5.17;;;;;;;25.04;52.67;100106.53;5075244;28;20869;-75
2023/06/12 06:57:54;;;;;;;8.63;5.10;;;;;;;25.05;52.08;100104.47;5072803;28;20607;-75
2023/06/12 07:00:23;;;;;;;6.07;5.43;;;;;;;25.06;52.25;100106.13;5056417;28;20177;-75
2023/06/12 07:02:49;;;;;;;8.20;5.03;;;;;;;25.05;52.26;100105.31;5071769;28;20185;-75
2023/06/12 07:05:15;;;;;;;7.00;5.50;;;;;;;25.06;52.06;100111.91;5056684;28;20428;-75
2023/06/12 07:07:41;;;;;;;8.10;5.77;;;;;;;25.05;51.89;100105.31;5056010;28;20207;-75
2023/06/12 07:10:07;;;;;;;7.27;6.10;;;;;;;25.05;52.21;100102.44;5074812;28;20432;-73
2023/06/12 07:12:33;;;;;;;7.50;5.60;;;;;;;25.05;51.87;100105.31;5037072;28;20825;-73
2023/06/12 07:14:59;;;;;;;6.87;5.40;;;;;;;25.04;52.05;100103.66;5062811;28;20699;-73
2023/06/12 07:17:24;;;;;;;9.63;6.00;;;;;;;25.04;51.79;100106.53;5073792;28;20898;-73
2023/06/12 07:19:50;;;;;;;6.40;5.00;;;;;;;25.02;52.19;100103.28;5056903;28;20166;-73
2023/06/12 07:22:15;;;;;;;7.87;5.47;;;;;;;25.02;52.44;100099.56;5087476;28;20179;-73
2023/06/12 07:24:41;;;;;;;7.33;5.70;;;;;;;25.01;52.19;100097.91;5077087;28;20185;-73
2023/06/12 07:27:06;;;;;;;7.63;5.17;;;;;;;25.00;52.28;100100.00;5057145;28;20564;-73
2023/06/12 07:29:32;;;;;;;6.80;5.70;;;;;;;25.00;52.49;100099.19;5056261;28;20428;-74
2023/06/12 07:31:57;;;;;;;6.53;5.20;;;;;;;24.98;52.33;100099.59;5070291;28;20603;-73
2023/06/12 07:34:23;;;;;;;7.67;5.80;;;;;;;24.99;52.63;100095.44;5073085;28;20224;-73
2023/06/12 07:36:48;;;;;;;7.47;5.23;;;;;;;24.98;52.49;100096.72;5071696;28;20174;-73
2023/06/12 07:39:14;;;;;;;8.53;5.33;;;;;;;24.98;52.66;100102.47;5058996;28;20204;-73
2023/06/12 07:41:42;;;;;;;6.37;5.30;;;;;;;24.97;52.73;100089.28;5073422;28;20163;-73
2023/06/12 07:44:08;;;;;;;6.40;5.37;;;;;;;24.96;52.52;100096.34;5052423;28;20306;-73
2023/06/12 07:46:33;;;;;;;7.60;5.83;;;;;;;24.96;52.76;100090.56;5072116;28;20437;-73
2023/06/12 07:48:58;;;;;;;9.40;5.80;;;;;;;24.96;52.69;100090.56;5020111;28;20178;-74
2023/06/12 07:51:24;;;;;;;8.00;5.77;;;;;;;24.96;52.69;100087.66;5020142;28;20163;-73
2023/06/12 07:53:50;;;;;;;7.60;5.83;;;;;;;24.96;52.89;100089.72;5056710;28;20182;-73
2023/06/12 07:56:16;;;;;;;6.33;5.40;;;;;;;24.97;52.76;100094.25;5056751;28;20194;-73
2023/06/12 07:58:41;;;;;;;6.40;5.17;;;;;;;24.95;52.62;100086.03;5035518;28;20682;-74
2023/06/12 08:01:07;;;;;;;8.30;6.07;;;;;;;24.96;52.68;100078.16;5056991;28;20440;-73
2023/06/12 08:03:38;;;;;;;8.93;5.80;;;;;;;24.96;52.74;100081.06;5075644;28;20185;-73
2023/06/12 08:06:07;;;;;;;7.33;5.17;;;;;;;24.95;52.77;100083.16;5066598;28;20178;-73
2023/06/12 08:08:46;;;;;;;8.20;5.20;;;;;;;24.95;52.50;100070.75;5056556;28;20416;-73
2023/06/12 08:11:12;;;;;;;8.07;5.67;;;;;;;24.95;52.92;100074.47;5081357;28;20479;-73
2023/06/12 08:13:37;;;;;;;7.43;5.60;;;;;;;24.96;52.51;100063.72;5061464;28;20456;-73
2023/06/12 08:16:03;;;;;;;6.53;5.33;;;;;;;24.95;52.92;100071.59;5055784;28;20214;-74
2023/06/12 08:18:28;;;;;;;7.07;5.40;;;;;;;24.96;52.61;100069.50;5055579;28;20177;-73
2023/06/12 08:20:54;;;;;;;8.00;5.70;;;;;;;24.95;52.81;100057.16;5066873;28;20190;-73
2023/06/12 08:23:20;;;;;;;7.10;5.53;;;;;;;24.96;52.34;100058.78;5060218;28;20178;-73
2023/06/12 08:25:45;;;;;;;7.50;5.53;;;;;;;24.98;52.65;100059.16;5087866;28;20277;-73
2023/06/12 08:28:11;;;;;;;7.27;5.27;;;;;;;24.97;52.63;100057.53;5075377;28;20708;-73
2023/06/12 08:30:36;;;;;;;8.00;5.80;;;;;;;24.96;52.69;100052.16;5092622;28;20185;-73
2023/06/12 08:33:03;;;;;;;7.63;5.43;;;;;;;24.97;52.54;100054.63;5075414;28;20233;-74
2023/06/12 08:35:29;;;;;;;8.07;5.00;;;;;;;24.97;52.84;100050.91;5058139;28;20246;-73
2023/06/12 08:37:54;;;;;;;7.33;5.47;;;;;;;24.97;52.82;100048.84;5070643;28;20499;-74
2023/06/12 08:40:20;;;;;;;6.47;5.53;;;;;;;24.97;52.29;100045.97;5060191;28;20927;-73
2023/06/12 08:42:50;;;;;;;8.03;5.80;;;;;;;24.97;52.76;100042.25;5052778;28;20187;-73
2023/06/12 08:45:16;;;;;;;7.90;5.93;;;;;;;24.98;52.32;100041.81;5082953;28;20201;-73
2023/06/12 08:47:41;;;;;;;8.23;5.20;;;;;;;24.98;52.48;100038.94;5039296;28;20416;-73
2023/06/12 08:50:07;;;;;;;7.30;6.00;;;;;;;24.97;52.70;100037.31;5074749;28;20764;-73
2023/06/12 08:52:32;;;;;;;7.60;5.43;;;;;;;24.98;52.52;100033.16;5058605;28;20552;-73
2023/06/12 08:54:58;;;;;;;11.07;5.80;;;;;;;24.99;51.79;100040.56;5067249;28;20190;-73
2023/06/12 08:57:24;;;;;;;7.50;5.53;;;;;;;24.99;51.59;100039.75;5057459;28;20183;-73
2023/06/12 08:59:49;;;;;;;7.10;5.70;;;;;;;24.99;52.15;100040.56;5067221;28;20193;-73
2023/06/12 09:02:16;;;;;;;6.77;5.33;;;;;;;24.99;51.96;100034.00;5078029;28;20220;-73
2023/06/12 09:04:59;;;;;;;6.93;5.47;;;;;;;24.99;51.96;100029.00;5042432;28;20186;-73
2023/06/12 09:07:27;;;;;;;7.53;5.40;;;;;;;25.00;51.93;100035.63;5079046;28;20442;-73
2023/06/12 09:09:53;;;;;;;8.60;5.90;;;;;;;25.00;52.14;100022.00;5070124;28;20425;-73
2023/06/12 09:12:18;;;;;;;6.63;5.20;;;;;;;25.01;51.91;100028.59;5080216;28;20490;-73
2023/06/12 09:14:45;;;;;;;7.37;5.43;;;;;;;24.99;51.92;100023.22;5056275;28;20203;-74
2023/06/12 09:17:11;;;;;;;7.60;6.27;;;;;;;25.00;52.00;100021.19;5072017;28;20190;-73
2023/06/12 09:19:40;;;;;;;6.60;5.17;;;;;;;25.00;51.77;100019.13;5077748;28;20423;-73
2023/06/12 09:22:05;;;;;;;6.23;5.27;;;;;;;24.99;52.18;100011.69;5073045;28;20189;-73
2023/06/12 09:24:31;;;;;;;9.00;6.17;;;;;;;24.99;52.34;100017.47;5053597;28;20427;-74
2023/06/12 09:26:56;;;;;;;6.53;5.37;;;;;;;25.01;51.88;100014.97;5066276;28;20192;-73
2023/06/12 09:29:32;;;;;;;7.30;5.63;;;;;;;25.02;52.30;100015.78;5070073;28;20634;-73
2023/06/12 09:32:06;;;;;;;9.97;5.47;;;;;;;25.01;51.61;100006.31;5057386;28;20293;-73
2023/06/12 09:34:31;;;;;;;7.83;5.60;;;;;;;25.01;51.75;100006.31;5058576;28;20440;-73
2023/06/12 09:36:58;;;;;;;6.53;5.40;;;;;;;25.02;51.80;100007.94;5063034;28;20460;-73
2023/06/12 09:39:28;;;;;;;8.50;5.83;;;;;;;25.02;51.62;100005.06;5029589;28;20179;-73
2023/06/12 09:41:56;;;;;;;7.13;5.43;;;;;;;25.02;51.99;99999.28;5063441;28;20432;-73
2023/06/12 09:44:22;;;;;;;7.30;6.40;;;;;;;25.02;51.48;99999.28;5053589;28;20437;-73
2023/06/12 09:46:49;;;;;;;7.40;5.60;;;;;;;25.02;51.32;99993.50;5061326;28;20496;-73
2023/06/12 09:49:17;;;;;;;7.53;6.07;;;;;;;25.03;51.59;99988.56;5062882;28;20444;-73
2023/06/12 09:51:46;;;;;;;6.63;5.37;;;;;;;25.04;51.30;99995.97;5066282;28;20431;-73
2023/06/12 09:54:11;;;;;;;6.53;5.40;;;;;;;25.03;51.50;99995.13;5048122;28;20444;-73
2023/06/12 09:56:37;;;;;;;7.10;4.77;;;;;;;25.04;51.12;99999.66;5060155;28;20477;-73
2023/06/12 09:59:03;;;;;;;7.90;4.97;;;;;;;25.04;50.94;99996.75;5058097;28;20714;-73
2023/06/12 10:01:29;;;;;;;8.03;5.47;;;;;;;25.03;50.94;99989.34;5077575;28;20428;-73
2023/06/12 10:03:56;;;;;;;6.80;5.10;;;;;;;25.04;50.61;99990.97;5063071;28;20190;-73
2023/06/12 10:06:21;;;;;;;7.50;5.10;;;;;;;25.04;50.76;99984.41;5065624;28;20236;-73
2023/06/12 10:08:50;;;;;;;6.80;5.47;;;;;;;25.05;50.20;99983.97;5065568;28;20444;-73
2023/06/12 10:11:15;;;;;;;9.17;5.30;;;;;;;25.06;50.65;99976.94;5062240;28;20194;-73
2023/06/12 10:13:41;;;;;;;7.10;5.40;;;;;;;25.05;50.33;99977.38;5079156;28;20467;-73
2023/06/12 10:16:06;;;;;;;7.03;5.50;;;;;;;25.05;49.74;99983.97;5067317;28;20197;-73
2023/06/12 10:18:32;;;;;;;7.20;5.43;;;;;;;25.05;50.17;99986.03;5062455;28;20190;-73
2023/06/12 10:20:58;;;;;;;9.17;4.80;;;;;;;25.07;50.15;99977.75;5089691;28;20182;-73
2023/06/12 10:23:23;;;;;;;9.43;5.10;;;;;;;25.07;50.31;99971.97;5064460;28;20175;-73
2023/06/12 10:25:49;;;;;;;5.67;4.80;;;;;;;25.06;49.94;99971.16;5062983;28;20186;-73
2023/06/12 10:28:15;;;;;;;7.17;5.07;;;;;;;25.07;49.89;99969.06;5078897;28;20194;-73
2023/06/12 10:31:12;;;;;;;7.47;5.37;;;;;;;25.08;50.00;99964.97;5069486;28;20200;-73
2023/06/12 10:34:06;;;;;;;6.47;5.60;;;;;;;25.08;49.78;99974.41;5101346;28;20555;-73
2023/06/12 10:36:42;;;;;;;7.40;5.50;;;;;;;25.08;49.43;99971.53;5067028;28;20509;-73
2023/06/12 10:39:19;;;;;;;7.57;5.43;;;;;;;25.09;49.38;99969.47;5032574;28;20480;-73
2023/06/12 10:41:58;;;;;;;7.80;5.40;;;;;;;25.08;49.62;99956.28;5100469;28;20520;-73
2023/06/12 10:44:41;;;;;;;7.00;5.40;;;;;;;25.08;48.91;99962.06;5046523;28;20514;-73
2023/06/12 10:47:21;;;;;;;6.17;5.20;;;;;;;25.08;49.62;99968.66;5084627;28;20458;-73
2023/06/12 10:50:03;;;;;;;12.53;5.80;;;;;;;25.08;49.35;99965.75;5063237;28;20906;-73
2023/06/12 10:52:28;;;;;;;6.57;5.63;;;;;;;25.08;49.88;99965.75;5085455;28;20985;-73
2023/06/12 10:55:13;;;;;;;7.10;5.17;;;;;;;25.10;49.40;99959.56;5044916;28;20445;-73
2023/06/12 10:57:38;;;;;;;7.00;5.40;;;;;;;25.09;49.44;99952.94;5097179;28;20209;-73
2023/06/12 11:00:10;;;;;;;6.47;5.00;;;;;;;25.09;49.08;99950.06;5061515;28;21170;-73
2023/06/12 11:02:35;;;;;;;6.10;5.50;;;;;;;25.10;49.35;99953.78;5061182;28;20188;-73
2023/06/12 11:05:04;;;;;;;6.30;5.47;;;;;;;25.10;49.19;99951.72;5094570;28;20812;-73
2023/06/12 11:07:33;;;;;;;8.80;5.93;;;;;;;25.11;49.11;99950.47;5079363;28;20653;-73
2023/06/12 11:10:08;;;;;;;6.90;5.70;;;;;;;25.10;49.18;99950.88;5092399;28;20895;-73
2023/06/12 11:12:33;;;;;;;9.50;5.20;;;;;;;25.10;49.51;99945.94;5078325;28;20474;-73
2023/06/12 11:14:59;;;;;;;6.83;5.37;;;;;;;25.09;49.41;99940.59;5081006;28;20455;-74
2023/06/12 11:17:24;;;;;;;7.27;5.20;;;;;;;25.10;49.21;99948.81;5065674;28;20186;-73
2023/06/12 11:19:58;;;;;;;12.83;5.47;;;;;;;25.11;49.36;99943.84;5064418;28;20196;-74
2023/06/12 11:22:24;;;;;;;6.27;5.37;;;;;;;25.13;49.27;99947.13;5072832;28;20614;-73
2023/06/12 11:24:49;;;;;;;7.17;5.30;;;;;;;25.11;49.27;99938.91;5065973;28;20436;-73
2023/06/12 11:27:15;;;;;;;11.70;5.60;;;;;;;25.11;49.41;99929.41;5066322;28;20182;-73